Time;durP1;ratioP1;P1;durP2;ratioP2;P2;SDS_P1;SDS_P2;PMS_P1;PMS_P2;Temp;Humidity;BMP_temperature;BMP_pressure;BME280_temperature;BME280_humidity;BME280_pressure;Samples;Min_cycle;Max_cycle;Signal;HPM_P1;HPM_P2
2024/01/14 00:00:21;;;;;;;30.33;10.33;;;;;;;13.12;51.90;101691.41;5049689;28;20017;-77
2024/01/14 00:02:49;;;;;;;29.57;11.83;;;;;;;13.04;51.96;101699.31;5050835;28;20099;-76
2024/01/14 00:05:14;;;;;;;28.30;10.27;;;;;;;12.09;53.59;101694.50;5050141;28;20500;-77
2024/01/14 00:07:40;;;;;;;33.87;11.30;;;;;;;11.84;55.39;101699.75;5045482;28;20061;-77
2024/01/14 00:10:05;;;;;;;28.63;9.47;;;;;;;11.99;54.59;101688.41;5030266;28;20028;-76
2024/01/14 00:12:31;;;;;;;35.77;12.50;;;;;;;12.01;54.85;101684.91;5043994;28;20017;-77
2024/01/14 00:14:57;;;;;;;42.00;12.00;;;;;;;12.94;51.89;101683.63;5049590;28;20040;-76
2024/01/14 00:17:22;;;;;;;45.73;13.40;;;;;;;12.75;52.36;101681.13;5050454;28;20017;-76
2024/01/14 00:19:47;;;;;;;47.00;12.67;;;;;;;12.76;51.92;101676.75;5052657;28;20029;-76
2024/01/14 00:22:13;;;;;;;43.50;14.93;;;;;;;12.42;52.96;101674.28;5055205;28;20021;-76
2024/01/14 00:24:38;;;;;;;37.30;11.60;;;;;;;12.42;52.58;101672.56;5053201;28;20508;-77
2024/01/14 00:27:04;;;;;;;36.87;12.67;;;;;;;11.49;54.93;101677.09;5053306;28;20394;-74
2024/01/14 00:29:29;;;;;;;37.07;13.07;;;;;;;12.28;53.62;101671.72;5054521;28;20033;-77
2024/01/14 00:31:56;;;;;;;34.40;12.50;;;;;;;13.36;50.72;101661.47;5053932;28;20013;-77
2024/01/14 00:34:22;;;;;;;38.93;12.40;;;;;;;13.08;50.78;101658.19;5052933;28;20035;-77
2024/01/14 00:36:47;;;;;;;43.97;13.73;;;;;;;13.33;49.97;101655.38;5053249;28;20025;-79
2024/01/14 00:39:12;;;;;;;44.07;13.63;;;;;;;12.78;50.87;101654.03;5053246;28;20120;-76
2024/01/14 00:41:38;;;;;;;32.47;12.00;;;;;;;13.22;50.46;101656.31;5048613;28;20116;-74
2024/01/14 00:44:03;;;;;;;36.03;12.77;;;;;;;11.50;54.90;101665.75;5053360;28;20056;-77
2024/01/14 00:46:31;;;;;;;31.17;11.57;;;;;;;11.83;54.45;101650.88;5052888;28;20045;-78
2024/01/14 00:48:56;;;;;;;35.57;10.27;;;;;;;12.29;53.13;101640.25;5052795;28;20025;-77
2024/01/14 00:51:23;;;;;;;34.20;11.47;;;;;;;12.84;52.19;101632.97;5053891;28;20504;-77
2024/01/14 00:53:48;;;;;;;34.50;13.03;;;;;;;12.89;51.42;101631.19;5049792;28;20460;-77
2024/01/14 00:56:13;;;;;;;37.50;13.03;;;;;;;12.34;52.83;101629.78;5052422;28;20121;-77
2024/01/14 00:58:39;;;;;;;34.83;14.37;;;;;;;11.62;54.07;101636.06;5049319;28;20083;-77
2024/01/14 01:01:04;;;;;;;36.70;14.03;;;;;;;11.71;54.02;101634.28;5033591;28;20013;-75
2024/01/14 01:03:30;;;;;;;37.27;14.57;;;;;;;12.21;52.82;101627.19;5050948;28;20033;-74
2024/01/14 01:05:55;;;;;;;38.43;14.27;;;;;;;12.39;51.31;101621.00;5042224;28;20029;-74
2024/01/14 01:08:20;;;;;;;40.93;15.40;;;;;;;11.48;54.13;101620.38;5052940;28;20112;-75
2024/01/14 01:10:46;;;;;;;35.50;13.13;;;;;;;11.81;53.69;101615.94;5051867;28;20500;-77
2024/01/14 01:13:12;;;;;;;42.53;15.73;;;;;;;12.52;51.60;101610.44;5049698;28;20032;-74
2024/01/14 01:15:37;;;;;;;42.13;15.23;;;;;;;12.42;51.54;101600.88;5052337;28;20028;-75
2024/01/14 01:18:02;;;;;;;42.07;15.23;;;;;;;11.46;53.88;101609.03;5048914;28;20025;-74
2024/01/14 01:20:31;;;;;;;48.63;16.50;;;;;;;12.44;51.12;101601.75;5056772;28;20056;-78
2024/01/14 01:22:56;;;;;;;45.30;15.27;;;;;;;11.94;53.01;101601.97;5048873;28;20049;-77
2024/01/14 01:25:22;;;;;;;41.87;15.13;;;;;;;12.08;51.46;101598.44;5052284;28;20075;-77
2024/01/14 01:27:47;;;;;;;49.57;14.87;;;;;;;12.02;51.79;101589.72;5051947;28;20022;-77
2024/01/14 01:30:12;;;;;;;55.73;14.80;;;;;;;12.10;51.18;101586.19;5051733;28;20021;-74
2024/01/14 01:32:38;;;;;;;48.00;14.73;;;;;;;12.05;51.49;101587.06;5053409;28;20116;-77
2024/01/14 01:35:04;;;;;;;45.20;15.30;;;;;;;11.70;52.94;101577.56;5052097;28;20044;-77
2024/01/14 01:37:29;;;;;;;50.53;14.43;;;;;;;11.71;51.97;101584.53;5051343;28;20477;-77
2024/01/14 01:39:56;;;;;;;46.60;15.33;;;;;;;11.50;52.69;101577.59;5052192;28;20056;-76
2024/01/14 01:42:21;;;;;;;61.07;16.57;;;;;;;11.59;53.52;101568.84;5052645;28;20025;-77
2024/01/14 01:44:46;;;;;;;41.03;13.90;;;;;;;10.84;55.23;101568.06;5051343;28;20177;-77
2024/01/14 01:47:15;;;;;;;39.80;14.57;;;;;;;10.90;55.15;101576.78;5052300;28;20075;-77
2024/01/14 01:49:41;;;;;;;45.90;14.40;;;;;;;11.31;53.71;101568.91;5051802;28;20029;-77
2024/01/14 01:52:06;;;;;;;48.93;15.33;;;;;;;11.54;53.80;101560.16;5051104;28;20259;-77
2024/01/14 01:54:33;;;;;;;50.20;15.97;;;;;;;11.64;53.68;101555.75;5051644;28;20111;-77
2024/01/14 01:56:59;;;;;;;38.53;15.33;;;;;;;12.16;51.46;101560.81;5051983;28;20029;-77
2024/01/14 01:59:25;;;;;;;40.33;13.03;;;;;;;10.93;55.07;101567.19;5051908;28;20025;-77
2024/01/14 02:01:51;;;;;;;47.57;13.97;;;;;;;10.88;55.49;101557.59;5068312;28;20037;-77
2024/01/14 02:04:17;;;;;;;37.53;13.00;;;;;;;10.77;56.75;101557.59;5051799;28;20444;-77
2024/01/14 02:06:43;;;;;;;36.27;12.03;;;;;;;10.90;56.17;101561.09;5051865;28;20116;-77
2024/01/14 02:09:09;;;;;;;40.43;14.23;;;;;;;12.59;50.79;101558.84;5051588;28;20032;-77
2024/01/14 02:11:35;;;;;;;46.20;14.73;;;;;;;12.50;50.62;101551.88;5050633;28;20023;-77
2024/01/14 02:14:02;;;;;;;39.03;12.77;;;;;;;11.76;51.46;101550.47;5051338;28;20118;-77
2024/01/14 02:16:27;;;;;;;36.27;12.90;;;;;;;11.76;51.39;101545.25;5051822;28;20043;-78
2024/01/14 02:18:53;;;;;;;39.87;14.47;;;;;;;12.25;50.21;101559.88;5051264;28;20021;-77
2024/01/14 02:21:32;;;;;;;41.23;13.80;;;;;;;12.14;51.27;101556.47;5066493;28;20121;-77
2024/01/14 02:24:25;;;;;;;46.43;13.10;;;;;;;11.80;51.09;101561.81;5052169;28;20028;-76
2024/01/14 02:26:51;;;;;;;41.70;13.90;;;;;;;11.19;51.96;101553.22;5050618;28;20021;-77
2024/01/14 02:29:17;;;;;;;55.40;15.73;;;;;;;11.28;51.96;101555.84;5048031;28;20120;-77
2024/01/14 02:31:44;;;;;;;37.53;13.83;;;;;;;11.38;51.79;101549.69;5045328;28;20032;-77
2024/01/14 02:34:10;;;;;;;48.00;14.43;;;;;;;11.51;52.48;101545.31;5049323;28;20037;-77
2024/01/14 02:36:35;;;;;;;38.43;13.10;;;;;;;10.77;53.77;101554.97;5052404;28;20024;-76
2024/01/14 02:39:00;;;;;;;34.97;12.63;;;;;;;10.43;54.84;101550.56;5052334;28;20024;-77
2024/01/14 02:41:26;;;;;;;43.17;14.53;;;;;;;11.14;53.90;101544.50;5049842;28;20238;-77
2024/01/14 02:43:51;;;;;;;52.80;15.83;;;;;;;10.91;54.74;101537.53;5050776;28;20435;-77
2024/01/14 02:46:16;;;;;;;41.13;13.90;;;;;;;11.18;54.73;101541.00;5047094;28;20045;-77
2024/01/14 02:48:42;;;;;;;45.77;14.33;;;;;;;10.92;54.71;101534.06;5034256;28;20087;-76
2024/01/14 02:51:07;;;;;;;44.77;15.47;;;;;;;10.66;54.95;101527.09;5052125;28;20090;-77
2024/01/14 02:53:33;;;;;;;43.20;15.57;;;;;;;11.79;52.20;101515.56;5051642;28;20060;-77
2024/01/14 02:55:58;;;;;;;46.40;15.33;;;;;;;11.64;52.94;101525.19;5050355;28;20053;-77
2024/01/14 02:58:24;;;;;;;50.27;16.80;;;;;;;12.02;51.81;101516.34;5067619;28;20028;-77
2024/01/14 03:00:49;;;;;;;39.73;14.70;;;;;;;12.65;49.88;101517.69;5050888;28;20029;-77
2024/01/14 03:03:14;;;;;;;44.83;14.73;;;;;;;13.07;49.27;101518.19;5050255;28;20037;-75
2024/01/14 03:05:40;;;;;;;56.80;18.03;;;;;;;12.01;51.33;101519.84;5049934;28;20025;-75
2024/01/14 03:08:05;;;;;;;40.53;13.97;;;;;;;11.67;52.92;101525.19;5051076;28;20088;-75
2024/01/14 03:10:30;;;;;;;34.13;10.40;;;;;;;10.57;55.71;101514.00;5049458;28;20033;-75
2024/01/14 03:12:56;;;;;;;52.60;17.50;;;;;;;10.75;56.62;101507.03;5047521;28;20432;-75
2024/01/14 03:15:21;;;;;;;36.97;16.10;;;;;;;11.54;53.86;101502.56;5048278;28;20040;-75
2024/01/14 03:17:47;;;;;;;46.13;15.50;;;;;;;11.55;54.57;101509.50;5049704;28;20114;-75
2024/01/14 03:20:12;;;;;;;50.57;16.07;;;;;;;11.82;52.85;101500.69;5051554;28;20035;-76
2024/01/14 03:22:37;;;;;;;43.27;14.20;;;;;;;12.45;51.29;101506.50;5050239;28;20037;-76
2024/01/14 03:25:03;;;;;;;42.93;15.57;;;;;;;12.02;52.69;101504.97;5050461;28;20051;-76
2024/01/14 03:27:29;;;;;;;41.13;15.00;;;;;;;12.53;51.33;101494.19;5050042;28;20400;-75
2024/01/14 03:29:54;;;;;;;36.87;15.00;;;;;;;12.43;51.31;101497.75;5049366;28;20044;-75
2024/01/14 03:32:20;;;;;;;38.57;14.77;;;;;;;12.60;50.67;101488.00;5050314;28;20056;-75
2024/01/14 03:34:45;;;;;;;36.53;14.10;;;;;;;11.64;52.83;101485.91;5050774;28;20055;-75
2024/01/14 03:37:11;;;;;;;41.63;14.90;;;;;;;10.98;55.45;101491.34;5066593;28;20032;-75
2024/01/14 03:39:36;;;;;;;49.00;15.13;;;;;;;11.73;53.49;101481.53;5050030;28;20396;-76
2024/01/14 03:42:01;;;;;;;35.07;13.37;;;;;;;11.82;52.64;101481.47;5049354;28;20076;-75
2024/01/14 03:44:27;;;;;;;49.77;16.97;;;;;;;11.95;52.64;101477.06;5049979;28;20048;-75
2024/01/14 03:46:52;;;;;;;40.23;15.30;;;;;;;11.27;54.53;101475.56;5049902;28;20072;-75
2024/01/14 03:49:18;;;;;;;43.40;13.43;;;;;;;11.60;52.77;101462.38;5049730;28;20052;-75
2024/01/14 03:51:43;;;;;;;42.63;15.40;;;;;;;11.62;52.82;101461.50;5051310;28;20444;-75
2024/01/14 03:54:08;;;;;;;42.67;14.27;;;;;;;11.02;54.31;101457.31;5056989;28;20127;-75
2024/01/14 03:56:34;;;;;;;34.53;14.27;;;;;;;11.78;52.75;101464.03;5057377;28;20043;-75
2024/01/14 03:58:59;;;;;;;42.33;16.73;;;;;;;11.62;52.44;101461.50;5056484;28;20035;-75
2024/01/14 04:01:25;;;;;;;40.10;14.50;;;;;;;11.69;52.50;101460.59;5056320;28;20029;-76
2024/01/14 04:03:50;;;;;;;47.83;13.93;;;;;;;10.96;54.44;101462.56;5073045;28;20029;-75
2024/01/14 04:06:20;;;;;;;43.37;14.17;;;;;;;11.37;54.01;101453.75;5055841;28;20028;-75
2024/01/14 04:08:45;;;;;;;42.93;13.50;;;;;;;11.27;53.26;101453.78;5036328;28;20028;-76
2024/01/14 04:11:11;;;;;;;39.93;13.30;;;;;;;11.47;52.46;101453.69;5051554;28;20017;-76
2024/01/14 04:13:36;;;;;;;36.53;13.87;;;;;;;11.91;51.65;101454.34;5055667;28;20041;-75
2024/01/14 04:16:02;;;;;;;44.07;14.67;;;;;;;11.65;51.53;101452.75;5057705;28;20381;-76
2024/01/14 04:18:29;;;;;;;39.30;14.70;;;;;;;11.80;50.95;101452.69;5057175;28;20353;-75
2024/01/14 04:20:54;;;;;;;37.47;13.83;;;;;;;11.34;51.70;101458.97;5057168;28;20017;-75
2024/01/14 04:23:19;;;;;;;24.67;11.20;;;;;;;11.37;52.21;101448.50;5056663;28;20036;-76
2024/01/14 04:25:45;;;;;;;33.17;12.10;;;;;;;11.51;52.07;101445.84;5051120;28;20022;-75
2024/01/14 04:28:10;;;;;;;35.30;12.60;;;;;;;11.80;51.69;101446.56;5047848;28;20048;-75
2024/01/14 04:30:36;;;;;;;36.33;14.03;;;;;;;11.23;52.82;101442.44;5055636;28;20025;-76
2024/01/14 04:33:02;;;;;;;29.10;11.30;;;;;;;10.68;53.71;101428.59;5055839;28;20391;-75
2024/01/14 04:35:27;;;;;;;35.17;12.80;;;;;;;11.41;52.40;101427.56;5053381;28;20052;-76
2024/01/14 04:37:53;;;;;;;40.83;12.87;;;;;;;11.22;52.22;101422.38;5046237;28;20044;-76
2024/01/14 04:40:18;;;;;;;31.10;11.90;;;;;;;11.29;52.63;101423.22;5055623;28;20056;-76
2024/01/14 04:42:43;;;;;;;34.60;13.17;;;;;;;11.67;51.85;101415.19;5056330;28;20373;-76
2024/01/14 04:45:09;;;;;;;33.03;13.33;;;;;;;11.14;52.82;101408.44;5057572;28;20056;-76
2024/01/14 04:47:35;;;;;;;30.53;13.37;;;;;;;11.35;51.98;101413.59;5051438;28;20385;-76
2024/01/14 04:50:00;;;;;;;31.30;12.30;;;;;;;11.60;52.20;101413.50;5061352;28;20098;-76
2024/01/14 04:52:25;;;;;;;36.80;12.90;;;;;;;11.82;50.92;101405.53;5057230;28;20094;-76
2024/01/14 04:54:51;;;;;;;38.00;12.50;;;;;;;11.21;53.04;101410.19;5055139;28;20056;-76
2024/01/14 04:57:16;;;;;;;33.00;13.57;;;;;;;10.56;54.43;101405.06;5051630;28;20112;-76
2024/01/14 04:59:41;;;;;;;41.03;13.07;;;;;;;11.44;52.99;101411.81;5035753;28;20477;-76
2024/01/14 05:02:07;;;;;;;34.63;13.27;;;;;;;11.50;52.59;101411.81;5050402;28;20062;-76
2024/01/14 05:04:33;;;;;;;41.33;12.87;;;;;;;11.28;53.47;101408.38;5053256;28;20083;-76
2024/01/14 05:06:59;;;;;;;42.17;14.93;;;;;;;11.34;52.53;101401.38;5069994;28;20575;-76
2024/01/14 05:09:24;;;;;;;36.33;14.60;;;;;;;10.32;55.24;101398.09;5051787;28;20396;-76
2024/01/14 05:11:50;;;;;;;43.00;14.30;;;;;;;11.27;53.59;101390.97;5052552;28;20039;-76
2024/01/14 05:14:15;;;;;;;45.70;16.30;;;;;;;11.67;51.94;101386.38;5051569;28;20162;-76
2024/01/14 05:16:40;;;;;;;42.67;15.03;;;;;;;12.10;51.05;101393.13;5050839;28;20029;-76
2024/01/14 05:19:06;;;;;;;42.50;14.73;;;;;;;12.48;49.89;101385.84;5049096;28;20081;-76
2024/01/14 05:21:31;;;;;;;46.57;17.00;;;;;;;12.83;49.03;101380.25;5053391;28;20178;-76
2024/01/14 05:23:56;;;;;;;43.07;16.43;;;;;;;12.39;49.29;101381.53;5052984;28;20068;-75
2024/01/14 05:26:24;;;;;;;43.27;15.03;;;;;;;12.58;49.39;101386.63;5052633;28;20024;-75
2024/01/14 05:28:50;;;;;;;52.50;15.80;;;;;;;11.81;51.15;101385.44;5052424;28;20400;-75
2024/01/14 05:31:15;;;;;;;42.60;15.23;;;;;;;11.62;51.96;101380.34;5048474;28;20029;-75
2024/01/14 05:33:40;;;;;;;50.13;16.90;;;;;;;11.02;53.61;101368.38;5042564;28;20033;-75
2024/01/14 05:36:06;;;;;;;47.27;15.20;;;;;;;11.27;52.43;101373.50;5052360;28;20028;-75
2024/01/14 05:38:31;;;;;;;46.30;16.83;;;;;;;11.85;51.97;101371.44;5052659;28;20029;-75
2024/01/14 05:40:57;;;;;;;42.73;15.10;;;;;;;10.78;54.34;101368.44;5053230;28;20035;-75
2024/01/14 05:43:22;;;;;;;41.87;14.47;;;;;;;11.48;52.66;101361.19;5050458;28;20052;-75
2024/01/14 05:45:47;;;;;;;37.00;14.53;;;;;;;10.80;54.60;101353.63;5051336;28;20149;-75
2024/01/14 05:48:13;;;;;;;38.53;15.30;;;;;;;10.84;54.98;101358.84;5048750;28;20032;-75
2024/01/14 05:50:38;;;;;;;33.70;14.73;;;;;;;10.99;53.73;101355.31;5047941;28;20040;-75
2024/01/14 05:53:03;;;;;;;46.27;14.27;;;;;;;10.94;53.70;101343.97;5051699;28;20031;-75
2024/01/14 05:55:29;;;;;;;41.77;13.53;;;;;;;9.61;58.15;101344.03;5053303;28;20036;-76
2024/01/14 05:57:54;;;;;;;45.40;15.10;;;;;;;11.02;53.93;101342.22;5050300;28;20059;-75
2024/01/14 06:00:22;;;;;;;38.13;14.93;;;;;;;10.69;54.46;101336.22;5048024;28;20467;-75
2024/01/14 06:02:48;;;;;;;34.87;14.70;;;;;;;9.59;56.80;101335.34;5038633;28;20025;-76
2024/01/14 06:05:13;;;;;;;47.10;15.63;;;;;;;10.30;55.84;101335.38;5043083;28;20393;-75
2024/01/14 06:07:39;;;;;;;38.17;15.47;;;;;;;10.80;54.67;101324.88;5044692;28;20148;-75
2024/01/14 06:10:04;;;;;;;49.23;14.60;;;;;;;10.01;56.21;101323.19;5051794;28;20131;-75
2024/01/14 06:12:30;;;;;;;42.63;15.70;;;;;;;11.29;53.22;101323.78;5051903;28;20067;-76
2024/01/14 06:14:55;;;;;;;35.47;13.90;;;;;;;10.46;54.99;101311.88;5051334;28;20439;-75
2024/01/14 06:17:21;;;;;;;43.30;16.63;;;;;;;11.06;53.11;101297.72;5052367;28;20504;-75
2024/01/14 06:19:46;;;;;;;40.23;13.60;;;;;;;10.87;54.33;101305.66;5046851;28;20026;-75
2024/01/14 06:22:12;;;;;;;46.03;14.73;;;;;;;11.08;53.46;101304.69;5041379;28;20481;-75
2024/01/14 06:24:38;;;;;;;44.37;14.70;;;;;;;10.97;53.34;101307.34;5051034;28;20073;-75
2024/01/14 06:27:03;;;;;;;40.80;13.90;;;;;;;11.02;53.24;101295.13;5050793;28;20021;-75
2024/01/14 06:29:29;;;;;;;44.93;14.73;;;;;;;10.68;55.31;101290.00;5047563;28;20080;-75
2024/01/14 06:31:54;;;;;;;40.67;13.73;;;;;;;9.83;57.01;101286.63;5054443;28;20123;-75
2024/01/14 06:34:20;;;;;;;39.87;14.60;;;;;;;9.48;58.22;101285.72;5052013;28;20029;-74
2024/01/14 06:36:45;;;;;;;41.60;13.57;;;;;;;10.28;57.13;101277.00;5051959;28;20028;-75
2024/01/14 06:39:10;;;;;;;50.50;14.50;;;;;;;9.60;58.60;101287.50;5051260;28;20493;-75
2024/01/14 06:41:36;;;;;;;40.20;13.93;;;;;;;9.93;58.19;101272.72;5051379;28;20381;-75
2024/01/14 06:44:02;;;;;;;46.00;14.20;;;;;;;10.26;57.16;101276.16;5050715;28;20024;-75
2024/01/14 06:46:28;;;;;;;41.57;14.30;;;;;;;10.09;57.37;101277.91;5048169;28;20068;-75
2024/01/14 06:48:53;;;;;;;43.67;14.33;;;;;;;10.58;56.83;101276.97;5050147;28;20412;-75
2024/01/14 06:51:19;;;;;;;40.30;13.40;;;;;;;11.49;52.80;101276.56;5052183;28;20025;-75
2024/01/14 06:53:44;;;;;;;41.00;15.10;;;;;;;10.82;54.50;101274.28;5051139;28;20443;-76
2024/01/14 06:56:10;;;;;;;41.63;13.67;;;;;;;10.88;54.92;101262.94;5052123;28;20075;-75
2024/01/14 06:58:35;;;;;;;43.07;14.47;;;;;;;11.17;53.51;101267.16;5051413;28;20032;-75
2024/01/14 07:01:03;;;;;;;46.47;14.80;;;;;;;10.74;54.68;101272.56;5051384;28;20029;-75
2024/01/14 07:03:32;;;;;;;43.07;14.67;;;;;;;10.13;57.41;101271.81;5047266;28;20377;-75
2024/01/14 07:05:57;;;;;;;41.30;15.30;;;;;;;11.05;54.02;101267.22;5030839;28;20489;-76
2024/01/14 07:08:24;;;;;;;47.87;14.60;;;;;;;10.92;54.37;101267.28;5045205;28;20031;-75
2024/01/14 07:10:49;;;;;;;38.83;14.50;;;;;;;10.37;55.41;101273.53;5046780;28;20032;-75
2024/01/14 07:13:14;;;;;;;37.93;14.83;;;;;;;10.97;55.27;101272.47;5057200;28;20025;-75
2024/01/14 07:15:40;;;;;;;36.43;13.03;;;;;;;10.55;55.46;101271.75;5042068;28;20025;-75
2024/01/14 07:18:05;;;;;;;37.30;12.57;;;;;;;10.55;55.93;101269.16;5050632;28;20128;-75
2024/01/14 07:20:31;;;;;;;43.00;13.20;;;;;;;10.63;55.21;101265.66;5051400;28;20040;-75
2024/01/14 07:22:56;;;;;;;36.70;12.63;;;;;;;10.19;55.91;101263.97;5051105;28;20025;-76
2024/01/14 07:25:22;;;;;;;36.93;12.90;;;;;;;10.26;56.29;101265.72;5051462;28;20384;-76
2024/01/14 07:27:48;;;;;;;34.77;12.20;;;;;;;10.10;57.22;101274.44;5049484;28;20058;-76
2024/01/14 07:30:13;;;;;;;40.63;13.63;;;;;;;10.57;56.14;101276.13;5049380;28;20599;-76
2024/01/14 07:32:39;;;;;;;33.63;12.40;;;;;;;10.63;56.61;101276.09;5046628;28;20026;-76
2024/01/14 07:35:05;;;;;;;41.87;11.83;;;;;;;10.01;57.73;101280.53;5055699;28;20025;-76
2024/01/14 07:37:33;;;;;;;36.17;13.87;;;;;;;9.97;58.06;101269.22;5049001;28;20036;-76
2024/01/14 07:39:59;;;;;;;40.43;13.43;;;;;;;10.69;55.39;101270.84;5050270;28;20102;-76
2024/01/14 07:42:25;;;;;;;36.37;13.07;;;;;;;10.08;59.13;101270.94;5049690;28;20066;-76
2024/01/14 07:44:51;;;;;;;33.43;13.17;;;;;;;10.55;56.59;101270.03;5047944;28;20109;-75
2024/01/14 07:47:17;;;;;;;47.07;15.03;;;;;;;9.86;58.75;101270.94;5066328;28;20508;-75
2024/01/14 07:49:48;;;;;;;47.30;14.37;;;;;;;10.58;56.46;101275.25;5049773;28;20031;-75
2024/01/14 07:52:13;;;;;;;47.70;13.27;;;;;;;11.17;54.40;101261.94;5051208;28;20385;-75
2024/01/14 07:54:39;;;;;;;37.53;12.83;;;;;;;11.63;53.47;101255.50;5050010;28;20024;-75
2024/01/14 07:57:04;;;;;;;32.37;11.50;;;;;;;10.89;55.13;101264.66;5050457;28;20025;-75
2024/01/14 07:59:29;;;;;;;34.13;12.97;;;;;;;10.53;55.30;101263.94;5049465;28;20028;-75
2024/01/14 08:01:55;;;;;;;41.57;13.77;;;;;;;10.19;58.19;101271.78;5049659;28;20028;-75
2024/01/14 08:04:20;;;;;;;43.33;12.00;;;;;;;10.42;56.30;101261.34;5049596;28;20017;-75
2024/01/14 08:06:46;;;;;;;36.80;12.60;;;;;;;9.40;60.31;101270.94;5049729;28;20587;-75
2024/01/14 08:09:11;;;;;;;36.17;12.87;;;;;;;10.18;57.15;101264.84;5051345;28;20033;-75
2024/01/14 08:11:37;;;;;;;35.10;12.83;;;;;;;9.59;59.59;101277.03;5048632;28;20060;-75
2024/01/14 08:14:02;;;;;;;45.77;13.73;;;;;;;9.92;57.66;101264.84;5051288;28;20075;-75
2024/01/14 08:16:27;;;;;;;35.13;11.90;;;;;;;10.30;57.32;101257.00;5049562;28;20036;-75
2024/01/14 08:18:53;;;;;;;42.00;15.20;;;;;;;9.66;59.09;101269.22;5049506;28;20075;-75
2024/01/14 08:21:18;;;;;;;49.07;13.23;;;;;;;10.19;56.95;101261.34;5047751;28;20028;-75
2024/01/14 08:23:43;;;;;;;46.27;14.73;;;;;;;9.78;59.13;101267.47;5046101;28;20040;-75
2024/01/14 08:26:09;;;;;;;41.13;14.37;;;;;;;9.92;58.18;101255.28;5040764;28;20037;-75
2024/01/14 08:28:36;;;;;;;47.60;14.80;;;;;;;9.75;60.87;101257.03;5039735;28;20108;-75
2024/01/14 08:31:01;;;;;;;40.87;15.70;;;;;;;9.77;59.78;101255.31;5050203;28;20028;-75
2024/01/14 08:33:31;;;;;;;47.60;13.20;;;;;;;10.07;58.42;101254.41;5065748;28;20032;-76
2024/01/14 08:35:57;;;;;;;48.17;14.87;;;;;;;10.59;56.51;101258.69;5050974;28;20028;-76
2024/01/14 08:38:23;;;;;;;40.07;14.43;;;;;;;10.55;56.11;101256.06;5052035;28;20021;-75
2024/01/14 08:40:49;;;;;;;49.37;14.27;;;;;;;10.89;55.49;101250.72;5052858;28;20013;-76
2024/01/14 08:43:15;;;;;;;47.57;14.83;;;;;;;9.94;57.74;101237.00;5053256;28;20021;-76
2024/01/14 08:45:40;;;;;;;51.60;16.33;;;;;;;11.51;54.05;101232.88;5053646;28;20049;-76
2024/01/14 08:48:06;;;;;;;48.73;14.80;;;;;;;10.91;55.83;101242.00;5053074;28;20021;-76
2024/01/14 08:50:32;;;;;;;41.83;14.30;;;;;;;10.63;56.29;101247.34;5069511;28;20025;-76
2024/01/14 08:52:57;;;;;;;47.83;15.90;;;;;;;10.16;57.89;101235.25;5069938;28;20029;-76
2024/01/14 08:55:22;;;;;;;43.40;15.50;;;;;;;10.12;58.39;101228.28;5052100;28;20427;-75
2024/01/14 08:57:48;;;;;;;49.50;14.80;;;;;;;10.44;58.14;101228.25;5052751;28;20432;-77
2024/01/14 09:00:14;;;;;;;48.67;14.63;;;;;;;10.41;56.90;101229.97;5069401;28;20016;-75
2024/01/14 09:02:39;;;;;;;43.30;15.87;;;;;;;9.76;59.88;101224.84;5052264;28;20020;-75
2024/01/14 09:05:05;;;;;;;42.80;14.67;;;;;;;10.68;57.22;101227.25;5049348;28;20044;-76
2024/01/14 09:07:30;;;;;;;46.67;14.47;;;;;;;11.43;55.11;101219.00;5045599;28;20447;-76
2024/01/14 09:09:56;;;;;;;39.37;14.37;;;;;;;10.02;59.38;101220.44;5052725;28;20497;-75
2024/01/14 09:12:21;;;;;;;38.60;15.13;;;;;;;11.00;56.75;101218.41;5052570;28;20021;-75
2024/01/14 09:14:47;;;;;;;43.03;14.73;;;;;;;10.98;57.12;101212.31;5052373;28;20064;-76
2024/01/14 09:17:12;;;;;;;42.57;13.70;;;;;;;10.66;57.32;101210.72;5050026;28;20115;-75
2024/01/14 09:19:38;;;;;;;45.67;14.30;;;;;;;10.49;58.20;101205.56;5051606;28;20028;-76
2024/01/14 09:22:03;;;;;;;47.10;14.17;;;;;;;9.78;60.33;101205.69;5051278;28;20051;-76
2024/01/14 09:24:29;;;;;;;39.37;13.83;;;;;;;10.74;58.22;101209.81;5052595;28;20142;-75
2024/01/14 09:26:54;;;;;;;38.53;13.37;;;;;;;11.00;57.42;101213.19;5051764;28;20484;-76
2024/01/14 09:29:21;;;;;;;39.90;12.50;;;;;;;10.28;60.78;101213.44;5052162;28;20024;-75
2024/01/14 09:31:46;;;;;;;40.37;15.20;;;;;;;10.70;58.72;101208.94;5052288;28;20029;-75
2024/01/14 09:34:12;;;;;;;40.80;14.60;;;;;;;10.71;56.77;101200.25;5052511;28;20042;-76
2024/01/14 09:36:40;;;;;;;42.50;12.63;;;;;;;10.34;59.94;101201.28;5050765;28;20491;-75
2024/01/14 09:39:06;;;;;;;36.73;12.50;;;;;;;10.25;58.79;101201.25;5052321;28;20060;-75
2024/01/14 09:41:43;;;;;;;38.77;13.50;;;;;;;10.04;59.59;101196.06;5048097;28;20049;-75
2024/01/14 09:44:13;;;;;;;43.77;13.67;;;;;;;10.44;58.18;101196.00;5051479;28;20028;-75
2024/01/14 09:46:39;;;;;;;38.93;11.90;;;;;;;10.32;57.65;101196.91;5051385;28;20041;-76
2024/01/14 09:49:04;;;;;;;45.30;14.27;;;;;;;10.12;60.08;101195.19;5051682;28;20033;-75
2024/01/14 09:51:32;;;;;;;36.37;11.97;;;;;;;10.19;59.38;101196.03;5050529;28;20037;-75
2024/01/14 09:54:00;;;;;;;43.80;16.03;;;;;;;10.28;59.43;101196.03;5068869;28;20043;-75
2024/01/14 09:56:30;;;;;;;36.53;12.43;;;;;;;10.73;58.46;101192.38;5051200;28;20477;-75
2024/01/14 09:58:56;;;;;;;37.60;13.03;;;;;;;10.23;58.32;101192.53;5053497;28;20033;-76
2024/01/14 10:01:22;;;;;;;38.30;12.83;;;;;;;9.86;59.50;101190.00;5051971;28;20032;-76
2024/01/14 10:03:49;;;;;;;41.23;13.17;;;;;;;9.89;60.91;101192.63;5050759;28;20033;-76
2024/01/14 10:06:15;;;;;;;36.63;13.50;;;;;;;9.08;63.59;101201.28;5051797;28;20073;-76
2024/01/14 10:08:40;;;;;;;49.23;15.97;;;;;;;10.05;60.95;101192.59;5046736;28;20120;-76
2024/01/14 10:11:05;;;;;;;38.33;11.93;;;;;;;9.79;60.82;101180.44;5046126;28;20026;-76
2024/01/14 10:13:34;;;;;;;34.70;12.03;;;;;;;10.51;57.97;101182.06;5050860;28;20029;-75
2024/01/14 10:16:01;;;;;;;41.40;15.27;;;;;;;10.95;56.76;101180.06;5013816;28;20055;-76
2024/01/14 10:18:26;;;;;;;44.83;13.77;;;;;;;10.83;57.06;101178.41;5050657;28;20037;-76
2024/01/14 10:20:52;;;;;;;33.80;12.33;;;;;;;10.01;59.05;101174.34;5048758;28;20027;-76
2024/01/14 10:23:17;;;;;;;40.87;12.60;;;;;;;10.18;59.00;101178.66;5016516;28;20131;-76
2024/01/14 10:25:43;;;;;;;56.13;14.00;;;;;;;10.35;59.62;101169.03;5031805;28;20140;-76
2024/01/14 10:28:09;;;;;;;43.53;14.87;;;;;;;10.24;58.93;101178.63;5050014;28;20116;-76
2024/01/14 10:30:35;;;;;;;44.43;13.23;;;;;;;10.62;58.01;101174.13;5046381;28;20025;-76
2024/01/14 10:33:02;;;;;;;40.47;13.40;;;;;;;10.61;58.64;101168.03;5047632;28;20060;-75
2024/01/14 10:35:27;;;;;;;44.17;12.93;;;;;;;11.29;55.05;101162.41;5037533;28;20516;-76
2024/01/14 10:37:53;;;;;;;36.60;12.03;;;;;;;10.42;57.29;101167.25;5050395;28;20021;-76
2024/01/14 10:40:18;;;;;;;59.57;13.93;;;;;;;11.32;54.45;101156.25;5050521;28;20433;-77
2024/01/14 10:42:44;;;;;;;50.17;14.70;;;;;;;11.11;55.15;101157.28;5049854;28;20482;-76
2024/01/14 10:45:10;;;;;;;46.10;13.10;;;;;;;10.23;57.44;101155.97;5050555;28;20556;-76
2024/01/14 10:47:36;;;;;;;36.53;12.40;;;;;;;10.56;57.48;101159.34;5050355;28;20032;-76
2024/01/14 10:50:03;;;;;;;43.33;13.50;;;;;;;10.21;58.41;101151.63;5067084;28;20067;-76
2024/01/14 10:52:35;;;;;;;44.77;13.90;;;;;;;10.61;58.67;101152.38;5048532;28;20025;-76
2024/01/14 10:55:27;;;;;;;50.45;13.52;;;;;;;10.41;58.87;101154.19;5047744;28;20146;-75
2024/01/14 10:57:53;;;;;;;34.13;12.23;;;;;;;10.24;58.99;101147.25;5049414;28;20045;-75
2024/01/14 11:00:19;;;;;;;46.10;13.87;;;;;;;10.68;57.78;101154.06;5065002;28;20020;-75
2024/01/14 11:02:45;;;;;;;38.33;11.83;;;;;;;11.00;56.10;101137.31;5065031;28;20064;-75